HKWJ

Details ICAO HKWJ (WJR)
Name WAJIR
Region Kenya
Timezone Africa/Nairobi (UTC+3.0)
Plans Departing 10
Arriving 15
Stats Elevation 770 ft / 235 m (AMSL)
Location 1.733237° 40.091607°
Runways 1
Magnetic Variation 0.772° E
Sunrise 2018-05-20 03:11:31 UTC / 2018-05-20 06:11:31 Local
Sunset 2018-05-20 15:23:38 UTC / 2018-05-20 18:23:38 Local
Advertisement - Login to hide

Runways

ID Width Length Bearing (true) Bearing (mag) Surface Threshold Offset Overrun Length
15 104 ft / 32 m 9,213 ft / 2,808 m 146.33° 145.56° Asphalt 0 ft / 0 m 164 ft / 50 m
33 104 ft / 32 m 9,213 ft / 2,808 m 326.33° 325.56° Asphalt 0 ft / 0 m 164 ft / 50 m

Map

Weather


0- 5 10 15 20 25 30 35+ Temperature / ° C

Clouds and Precipitation
Forecast for 2018-05-20 18:00 UTC. Updated an hour ago

Ground ~20,000 ft ~40,000 ft Winds

METAR

HKWJ 201800Z 14005KT 9999 FEW029 27/20 Q1009

TAF

Not found

Frequencies

Tower 118.20 MHz AFIS
Warning: Do not use this data for real-world aviation or navigation. No guarantee of current accuracy is given.